Tremonton, Utah
Current Conditions -  °F | °C
As of 1:15 AM on Saturday 29 Nov 2014 (Local Time) from KBMC Reporting Station
Clear Clear  
Wind Chill: 11°   Ceiling: Unl
Heat Index: 11°   Visibility: 10mi
Dew Point: -7°   Wind: 17mph
Humidity: 27%   Direction: 180°S
Pressure: 29.73"   Gusts: NA
Location:  41.71°N, 112.17°W
Report Text: KBMC 290815Z AUTO 18015KT 10SM CLR 12/M07 A2973 RMK AO1 T01151071
Loading
Personal Weather Stations






























Interactive Weather Map New forecast layout! Learn more

10-Day Weather Forecast

Advertisements
Track Severe Weather on mobile